Time;durP1;ratioP1;P1;durP2;ratioP2;P2;SDS_P1;SDS_P2;PMS_P1;PMS_P2;Temp;Humidity;BMP_temperature;BMP_pressure;BME280_temperature;BME280_humidity;BME280_pressure;Samples;Min_cycle;Max_cycle;Signal;HPM_P1;HPM_P2
2023/06/14 00:00:14;;;;;;;5.90;5.17;;;19.70;43.80;;;;;;4943722;29;20475;-74
2023/06/14 00:02:41;;;;;;;5.30;4.80;;;19.60;43.80;;;;;;4947081;29;20198;-74
2023/06/14 00:05:07;;;;;;;6.17;5.07;;;19.60;43.80;;;;;;4932430;29;20446;-73
2023/06/14 00:07:42;;;;;;;5.47;4.50;;;19.60;43.90;;;;;;4934557;29;20414;-73
2023/06/14 00:10:08;;;;;;;4.50;4.10;;;19.50;43.90;;;;;;4944815;29;20448;-75
2023/06/14 00:12:35;;;;;;;3.90;3.60;;;19.40;44.00;;;;;;4945929;29;20706;-73
2023/06/14 00:15:01;;;;;;;4.37;3.97;;;19.30;44.10;;;;;;4944892;29;20477;-73
2023/06/14 00:17:30;;;;;;;4.33;3.93;;;19.30;44.30;;;;;;4944251;29;20497;-72
2023/06/14 00:19:56;;;;;;;5.17;4.33;;;19.30;44.40;;;;;;4941841;29;20475;-73
2023/06/14 00:22:24;;;;;;;5.53;5.03;;;19.30;44.60;;;;;;4943488;29;20502;-72
2023/06/14 00:24:50;;;;;;;3.90;3.50;;;19.20;44.70;;;;;;4943321;29;20441;-73
2023/06/14 00:27:16;;;;;;;4.60;4.20;;;19.20;44.90;;;;;;4943323;29;20452;-74
2023/06/14 00:29:42;;;;;;;6.60;5.20;;;19.20;45.10;;;;;;4940936;29;20445;-72
2023/06/14 00:32:08;;;;;;;6.20;5.60;;;19.20;45.30;;;;;;4942154;29;20596;-75
2023/06/14 00:34:33;;;;;;;5.20;4.70;;;19.20;45.40;;;;;;4942870;29;20257;-72
2023/06/14 00:36:59;;;;;;;6.73;5.30;;;19.20;45.30;;;;;;4941741;29;20202;-73
2023/06/14 00:39:25;;;;;;;5.27;4.77;;;19.20;45.30;;;;;;4942863;29;20201;-72
2023/06/14 00:41:52;;;;;;;5.80;5.20;;;19.20;45.50;;;;;;4942463;29;20470;-75
2023/06/14 00:44:17;;;;;;;6.60;4.80;;;19.10;45.50;;;;;;4931003;29;20196;-73
2023/06/14 00:46:45;;;;;;;6.40;5.40;;;19.10;45.50;;;;;;4948421;29;20428;-74
2023/06/14 00:49:12;;;;;;;6.17;4.97;;;19.10;45.60;;;;;;4939733;29;20218;-71
2023/06/14 00:51:39;;;;;;;10.37;6.57;;;19.10;45.70;;;;;;4925590;29;20419;-73
2023/06/14 00:54:04;;;;;;;6.73;5.30;;;19.00;45.40;;;;;;4956613;29;20421;-74
2023/06/14 00:56:30;;;;;;;6.93;6.23;;;19.00;45.40;;;;;;4942592;29;20467;-72
2023/06/14 00:58:57;;;;;;;8.00;5.93;;;19.00;45.50;;;;;;4941042;29;20639;-73
2023/06/14 01:01:23;;;;;;;6.33;5.50;;;19.00;45.50;;;;;;4941298;29;20474;-72
2023/06/14 01:03:51;;;;;;;6.53;5.77;;;18.90;45.50;;;;;;4941678;29;21122;-73
2023/06/14 01:06:41;;;;;;;9.40;5.43;;;18.90;45.40;;;;;;4932804;29;20960;-73
2023/06/14 01:09:23;;;;;;;8.80;5.80;;;18.90;45.50;;;;;;4973276;28;20459;-73
2023/06/14 01:12:00;;;;;;;6.90;5.00;;;18.90;45.60;;;;;;4941342;29;20438;-73
2023/06/14 01:14:28;;;;;;;6.17;5.57;;;18.80;45.60;;;;;;4940544;29;20424;-73
2023/06/14 01:16:57;;;;;;;6.40;4.97;;;18.70;45.60;;;;;;4942268;29;20460;-72
2023/06/14 01:19:25;;;;;;;8.07;5.70;;;18.70;45.70;;;;;;4939373;29;20458;-72
2023/06/14 01:21:52;;;;;;;6.60;5.97;;;18.60;45.80;;;;;;4941028;29;20429;-72
2023/06/14 01:24:25;;;;;;;5.27;4.77;;;18.70;45.80;;;;;;4944406;29;20530;-72
2023/06/14 01:26:56;;;;;;;5.93;5.40;;;18.70;45.70;;;;;;4945249;29;20472;-72
2023/06/14 01:29:27;;;;;;;6.27;5.53;;;18.70;45.70;;;;;;4946337;29;20441;-72
2023/06/14 01:31:54;;;;;;;7.00;6.30;;;18.60;46.00;;;;;;4944362;29;20435;-72
2023/06/14 01:34:20;;;;;;;5.63;5.10;;;18.60;46.50;;;;;;4945316;29;20508;-71
2023/06/14 01:36:47;;;;;;;5.03;4.60;;;18.70;46.80;;;;;;4950750;29;20596;-72
2023/06/14 01:39:15;;;;;;;5.07;4.60;;;18.60;46.90;;;;;;4953407;29;20439;-73
2023/06/14 01:41:42;;;;;;;4.00;3.70;;;18.50;47.00;;;;;;4946606;29;20970;-72
2023/06/14 01:44:09;;;;;;;3.40;3.10;;;18.50;47.10;;;;;;4943441;29;20808;-73
2023/06/14 01:46:35;;;;;;;3.37;3.07;;;18.30;47.30;;;;;;4944688;29;20956;-72
2023/06/14 01:49:02;;;;;;;3.40;2.90;;;18.30;47.40;;;;;;4941571;29;20448;-73
2023/06/14 01:51:27;;;;;;;4.87;4.13;;;18.20;47.50;;;;;;4944199;29;20427;-78
2023/06/14 01:53:53;;;;;;;4.90;3.90;;;18.10;47.50;;;;;;4944340;29;20489;-72
2023/06/14 01:56:18;;;;;;;5.30;4.67;;;18.10;47.50;;;;;;4944987;29;20249;-72
2023/06/14 01:58:48;;;;;;;4.93;4.40;;;18.20;47.30;;;;;;4942770;29;20225;-72
2023/06/14 02:01:16;;;;;;;6.50;5.57;;;18.20;46.80;;;;;;4940332;29;20558;-72
2023/06/14 02:03:42;;;;;;;7.53;5.97;;;18.30;46.60;;;;;;4941434;29;20699;-72
2023/06/14 02:06:07;;;;;;;5.73;5.13;;;18.30;46.40;;;;;;4940952;29;20435;-72
2023/06/14 02:08:33;;;;;;;8.10;5.57;;;18.30;46.20;;;;;;4942489;29;20431;-72
2023/06/14 02:11:00;;;;;;;6.57;4.67;;;18.30;46.10;;;;;;4940890;29;20313;-73
2023/06/14 02:13:25;;;;;;;5.93;5.07;;;18.30;46.10;;;;;;4941999;29;20424;-72
2023/06/14 02:15:53;;;;;;;5.90;5.00;;;18.30;46.10;;;;;;4941114;29;20654;-73
2023/06/14 02:18:18;;;;;;;4.97;4.43;;;18.20;46.10;;;;;;4955964;29;20193;-73
2023/06/14 02:20:44;;;;;;;4.57;4.17;;;18.10;46.20;;;;;;4941122;29;20414;-73
2023/06/14 02:23:11;;;;;;;5.13;4.07;;;18.10;46.40;;;;;;4941792;29;20314;-72
2023/06/14 02:25:36;;;;;;;5.40;4.67;;;18.00;46.50;;;;;;4940816;29;20439;-73
2023/06/14 02:28:02;;;;;;;6.03;4.63;;;18.00;46.60;;;;;;4941282;29;20186;-72
2023/06/14 02:30:29;;;;;;;5.47;4.57;;;18.00;46.60;;;;;;4939055;29;20223;-72
2023/06/14 02:32:56;;;;;;;3.93;3.53;;;17.90;46.60;;;;;;4939589;29;20246;-73
2023/06/14 02:35:24;;;;;;;3.40;3.10;;;17.80;46.60;;;;;;4954769;29;20686;-74
2023/06/14 02:37:52;;;;;;;3.97;3.40;;;17.80;46.80;;;;;;4940651;29;20532;-73
2023/06/14 02:40:18;;;;;;;3.90;3.50;;;17.70;46.90;;;;;;4940544;29;20423;-72
2023/06/14 02:42:43;;;;;;;3.90;2.97;;;17.70;47.20;;;;;;4940627;29;20766;-71
2023/06/14 02:45:09;;;;;;;3.37;3.07;;;17.60;47.30;;;;;;4941295;29;20481;-73
2023/06/14 02:47:35;;;;;;;3.13;2.83;;;17.60;47.50;;;;;;4939332;29;20202;-72
2023/06/14 02:50:00;;;;;;;3.70;3.40;;;17.50;47.70;;;;;;4938829;29;20217;-73
2023/06/14 02:52:26;;;;;;;4.57;3.40;;;17.50;47.90;;;;;;4940907;29;20194;-72
2023/06/14 02:54:52;;;;;;;4.40;4.00;;;17.50;48.00;;;;;;4939793;29;20254;-75
2023/06/14 02:57:17;;;;;;;5.00;4.43;;;17.50;48.20;;;;;;4940328;29;20615;-73
2023/06/14 02:59:43;;;;;;;3.80;3.40;;;17.40;48.10;;;;;;4939881;29;20213;-72
2023/06/14 03:02:08;;;;;;;4.50;3.73;;;17.40;48.20;;;;;;4939694;29;20187;-72
2023/06/14 03:04:37;;;;;;;3.83;3.50;;;17.40;48.10;;;;;;4938658;29;20199;-72
2023/06/14 03:07:08;;;;;;;6.87;4.57;;;17.40;48.30;;;;;;4938762;29;20514;-72
2023/06/14 03:09:39;;;;;;;4.80;4.20;;;17.40;48.30;;;;;;4938152;29;20447;-73
2023/06/14 03:12:09;;;;;;;4.23;3.80;;;17.40;48.30;;;;;;4939042;29;20892;-73
2023/06/14 03:14:35;;;;;;;3.77;3.40;;;17.40;48.40;;;;;;4954919;29;20422;-73
2023/06/14 03:17:04;;;;;;;3.70;3.40;;;17.40;48.50;;;;;;4938445;29;20516;-73
2023/06/14 03:19:31;;;;;;;6.43;3.40;;;17.40;48.50;;;;;;4957788;28;20455;-71
2023/06/14 03:21:57;;;;;;;3.87;3.30;;;17.40;48.70;;;;;;4933910;29;20553;-72
2023/06/14 03:24:27;;;;;;;3.53;3.23;;;17.30;48.70;;;;;;4925910;29;20441;-75
2023/06/14 03:26:54;;;;;;;3.50;3.20;;;17.30;48.80;;;;;;4954303;29;20418;-71
2023/06/14 03:29:20;;;;;;;3.53;3.20;;;17.30;48.90;;;;;;4937722;29;20453;-73
2023/06/14 03:32:00;;;;;;;3.30;3.00;;;17.30;49.00;;;;;;4938533;29;20434;-73
2023/06/14 03:34:34;;;;;;;3.53;3.23;;;17.30;49.40;;;;;;4954045;29;20463;-72
2023/06/14 03:37:00;;;;;;;4.13;3.73;;;17.30;49.20;;;;;;4954267;29;20922;-72
2023/06/14 03:39:27;;;;;;;4.00;3.60;;;17.30;49.10;;;;;;4938691;29;20524;-72
2023/06/14 03:41:52;;;;;;;4.30;3.70;;;17.30;49.20;;;;;;4940697;29;20407;-73
2023/06/14 03:44:18;;;;;;;5.47;4.87;;;17.30;49.10;;;;;;4939225;29;20209;-74
2023/06/14 03:46:46;;;;;;;5.43;4.40;;;17.40;49.10;;;;;;4937105;29;20234;-71
2023/06/14 03:49:12;;;;;;;4.90;4.30;;;17.40;49.00;;;;;;4929581;29;20506;-72
2023/06/14 03:51:39;;;;;;;5.30;4.67;;;17.50;48.90;;;;;;4934399;29;20422;-74
2023/06/14 03:54:05;;;;;;;5.37;4.87;;;17.50;48.80;;;;;;4941074;29;20197;-73
2023/06/14 03:56:31;;;;;;;7.30;4.20;;;17.60;48.70;;;;;;4941924;29;20459;-72
2023/06/14 03:58:57;;;;;;;4.23;3.83;;;17.60;49.10;;;;;;4942104;29;20459;-72
2023/06/14 04:01:29;;;;;;;4.60;3.73;;;17.70;48.50;;;;;;4941336;29;20423;-73
2023/06/14 04:03:56;;;;;;;4.50;4.10;;;17.70;48.40;;;;;;4939531;29;20433;-73
2023/06/14 04:06:22;;;;;;;4.03;3.63;;;17.80;48.40;;;;;;4939315;29;20702;-73
2023/06/14 04:08:49;;;;;;;4.83;4.37;;;17.80;48.40;;;;;;4937784;29;20418;-73
2023/06/14 04:11:15;;;;;;;5.13;4.63;;;17.80;48.40;;;;;;4954222;29;20202;-73
2023/06/14 04:13:41;;;;;;;5.70;4.97;;;17.90;48.50;;;;;;4954617;29;20723;-72
2023/06/14 04:16:06;;;;;;;7.40;4.53;;;17.90;48.40;;;;;;4938939;29;20468;-74
2023/06/14 04:18:34;;;;;;;4.10;3.70;;;18.00;48.40;;;;;;4935592;29;20225;-71
2023/06/14 04:21:00;;;;;;;4.80;4.30;;;18.00;48.30;;;;;;4940055;29;20406;-73
2023/06/14 04:23:28;;;;;;;4.60;4.10;;;18.10;48.30;;;;;;4939671;29;20420;-74
2023/06/14 04:25:53;;;;;;;5.00;4.37;;;18.10;48.20;;;;;;4939705;29;20774;-73
2023/06/14 04:28:19;;;;;;;4.80;4.30;;;18.20;48.20;;;;;;4938856;29;20489;-72
2023/06/14 04:30:48;;;;;;;7.50;4.90;;;18.20;48.10;;;;;;4937454;29;20209;-73
2023/06/14 04:33:17;;;;;;;6.10;3.90;;;18.30;48.10;;;;;;4955217;29;20417;-75
2023/06/14 04:35:47;;;;;;;5.77;4.60;;;18.30;47.90;;;;;;4938968;29;20466;-72
2023/06/14 04:38:13;;;;;;;6.33;4.70;;;18.40;47.80;;;;;;4928228;29;20446;-75
2023/06/14 04:40:42;;;;;;;7.80;5.20;;;18.50;47.10;;;;;;4922523;29;20508;-71
2023/06/14 04:43:12;;;;;;;4.47;3.90;;;18.60;45.90;;;;;;4924166;29;20562;-74
2023/06/14 04:45:39;;;;;;;6.37;4.87;;;18.90;45.50;;;;;;4939710;29;20696;-74
2023/06/14 04:48:06;;;;;;;5.13;3.40;;;19.50;44.70;;;;;;4954175;29;20410;-73
2023/06/14 04:50:32;;;;;;;5.90;3.70;;;20.30;43.80;;;;;;4937459;29;20455;-74
2023/06/14 04:52:59;;;;;;;4.20;3.80;;;21.00;42.20;;;;;;4969800;28;20868;-73
2023/06/14 04:55:26;;;;;;;5.00;4.50;;;21.60;41.50;;;;;;4953257;29;20567;-73
2023/06/14 04:57:55;;;;;;;4.47;4.07;;;22.20;40.60;;;;;;4937230;29;20465;-73
2023/06/14 05:00:21;;;;;;;5.03;3.70;;;22.60;39.90;;;;;;4936938;29;20463;-73
2023/06/14 05:02:49;;;;;;;5.20;4.33;;;23.10;38.90;;;;;;4943178;29;20501;-74
2023/06/14 05:05:15;;;;;;;4.43;4.03;;;23.40;38.10;;;;;;4941218;29;20193;-75
2023/06/14 05:07:42;;;;;;;4.97;3.80;;;23.60;37.60;;;;;;4957841;29;20421;-73
2023/06/14 05:10:08;;;;;;;9.33;4.87;;;23.80;37.20;;;;;;4941316;29;20516;-73
2023/06/14 05:12:34;;;;;;;6.33;4.63;;;23.90;37.00;;;;;;4942758;29;20193;-72
2023/06/14 05:15:00;;;;;;;5.87;4.70;;;24.10;37.00;;;;;;4943458;29;20410;-75
2023/06/14 05:17:27;;;;;;;7.80;4.27;;;24.40;35.80;;;;;;4924989;29;20229;-76
2023/06/14 05:19:55;;;;;;;4.30;3.90;;;24.50;35.80;;;;;;4938792;29;20890;-74
2023/06/14 05:22:22;;;;;;;5.13;3.77;;;24.60;35.90;;;;;;4944506;29;20441;-74
2023/06/14 05:24:48;;;;;;;8.10;4.70;;;24.80;35.90;;;;;;4960201;29;20496;-75
2023/06/14 05:27:14;;;;;;;6.80;4.80;;;25.10;35.10;;;;;;4959629;29;20457;-74
2023/06/14 05:29:40;;;;;;;4.93;4.37;;;25.30;34.50;;;;;;4944657;29;20446;-75
2023/06/14 05:32:05;;;;;;;4.67;3.90;;;25.10;34.30;;;;;;4945763;29;20188;-76
2023/06/14 05:34:31;;;;;;;5.83;4.10;;;24.90;34.80;;;;;;4946337;29;20430;-76
2023/06/14 05:36:57;;;;;;;5.20;4.20;;;25.10;34.60;;;;;;4947883;29;20342;-75
2023/06/14 05:39:24;;;;;;;4.30;3.90;;;25.00;34.70;;;;;;4945566;29;20226;-74
2023/06/14 05:41:49;;;;;;;3.97;3.53;;;25.20;34.60;;;;;;4948274;29;20553;-77
2023/06/14 05:44:15;;;;;;;5.50;3.80;;;25.20;34.50;;;;;;4944134;29;20465;-74
2023/06/14 05:46:41;;;;;;;4.63;4.10;;;25.50;34.10;;;;;;4943064;29;20201;-74
2023/06/14 05:49:06;;;;;;;5.97;3.60;;;25.60;33.70;;;;;;4947242;29;20549;-77
2023/06/14 05:51:32;;;;;;;4.87;3.87;;;25.70;33.60;;;;;;4943848;29;20237;-75
2023/06/14 05:53:57;;;;;;;3.73;3.43;;;25.50;33.40;;;;;;4944801;29;20544;-75
2023/06/14 05:56:25;;;;;;;5.50;4.27;;;25.50;33.90;;;;;;4944194;29;20221;-74
2023/06/14 05:58:51;;;;;;;4.90;4.50;;;25.50;33.70;;;;;;4944444;29;20501;-73
2023/06/14 06:01:16;;;;;;;8.70;4.13;;;25.50;34.10;;;;;;4944956;29;20454;-75
2023/06/14 06:03:45;;;;;;;9.63;4.17;;;25.40;34.30;;;;;;4941154;29;20486;-75
2023/06/14 06:06:11;;;;;;;4.30;3.67;;;25.50;33.80;;;;;;4944827;29;20185;-74
2023/06/14 06:08:37;;;;;;;5.10;3.90;;;25.60;33.90;;;;;;4946436;29;20475;-74
2023/06/14 06:11:02;;;;;;;4.67;4.27;;;25.90;33.40;;;;;;4948725;29;20414;-75
2023/06/14 06:13:28;;;;;;;4.10;3.60;;;25.70;33.40;;;;;;4948059;29;20477;-74
2023/06/14 06:15:54;;;;;;;5.33;4.73;;;25.80;33.50;;;;;;4948998;29;20209;-76
2023/06/14 06:18:19;;;;;;;4.53;3.60;;;26.00;33.10;;;;;;4951529;29;20181;-76
2023/06/14 06:20:46;;;;;;;5.43;4.03;;;25.80;33.60;;;;;;4947310;29;20209;-76
2023/06/14 06:23:12;;;;;;;4.70;3.80;;;26.00;33.50;;;;;;4948404;29;20574;-74
2023/06/14 06:25:39;;;;;;;4.30;3.90;;;26.30;32.70;;;;;;4949094;29;20432;-78
2023/06/14 06:28:06;;;;;;;6.30;4.50;;;26.50;32.30;;;;;;4950097;29;20198;-76
2023/06/14 06:30:32;;;;;;;4.17;3.77;;;26.10;32.60;;;;;;4951823;29;20445;-78
2023/06/14 06:32:57;;;;;;;6.07;4.00;;;26.10;32.80;;;;;;4949984;29;20414;-77
2023/06/14 06:35:23;;;;;;;4.20;3.80;;;26.10;32.60;;;;;;4954303;29;20197;-78
2023/06/14 06:37:49;;;;;;;4.10;3.30;;;26.10;32.70;;;;;;4952383;29;20194;-75
2023/06/14 06:40:14;;;;;;;4.23;3.70;;;26.10;33.00;;;;;;4950155;29;20220;-78
2023/06/14 06:42:40;;;;;;;7.70;3.80;;;26.30;32.80;;;;;;4943122;29;20228;-76
2023/06/14 06:45:10;;;;;;;4.93;3.60;;;26.30;32.60;;;;;;4963436;29;20217;-77
2023/06/14 06:47:36;;;;;;;4.60;3.03;;;26.20;33.10;;;;;;4950853;29;20418;-77
2023/06/14 06:50:02;;;;;;;4.00;3.47;;;26.10;33.20;;;;;;4948048;29;20239;-74
2023/06/14 06:52:28;;;;;;;4.00;3.60;;;26.00;33.40;;;;;;4950348;29;20655;-77
2023/06/14 06:54:55;;;;;;;4.80;3.43;;;26.00;33.20;;;;;;4949993;29;20224;-78
2023/06/14 06:57:24;;;;;;;4.17;3.77;;;26.00;32.80;;;;;;4965158;29;20458;-75
2023/06/14 06:59:50;;;;;;;3.40;3.17;;;26.00;32.90;;;;;;4962566;29;20461;-77
2023/06/14 07:02:16;;;;;;;4.67;3.40;;;26.00;32.80;;;;;;4964323;29;20442;-77
2023/06/14 07:04:42;;;;;;;7.00;3.70;;;25.80;33.10;;;;;;4934595;29;20220;-79
2023/06/14 07:07:09;;;;;;;5.40;3.50;;;25.60;33.80;;;;;;4949706;29;20429;-75
2023/06/14 07:09:35;;;;;;;5.57;3.50;;;25.30;34.10;;;;;;4948046;29;20445;-74
2023/06/14 07:12:01;;;;;;;6.10;3.30;;;25.20;34.50;;;;;;4947514;29;20413;-74
2023/06/14 07:14:26;;;;;;;2.67;2.40;;;25.10;34.60;;;;;;4946018;29;20666;-77
2023/06/14 07:16:52;;;;;;;3.73;3.40;;;25.10;34.80;;;;;;4938070;29;20221;-77
2023/06/14 07:19:17;;;;;;;5.00;3.27;;;25.30;34.40;;;;;;4947086;29;20304;-74
2023/06/14 07:21:43;;;;;;;4.90;3.50;;;25.20;34.20;;;;;;4946529;29;20179;-75
2023/06/14 07:24:08;;;;;;;4.57;3.60;;;25.20;34.40;;;;;;4948416;29;20214;-77
2023/06/14 07:26:35;;;;;;;6.20;3.53;;;25.20;34.10;;;;;;4949206;29;20206;-76
2023/06/14 07:29:02;;;;;;;5.77;4.20;;;25.20;34.40;;;;;;4951913;29;20206;-77
2023/06/14 07:31:28;;;;;;;3.53;3.00;;;25.20;34.50;;;;;;4956494;29;20426;-81
2023/06/14 07:33:54;;;;;;;4.70;3.00;;;25.20;34.50;;;;;;4959045;29;20560;-80
2023/06/14 07:36:20;;;;;;;5.13;3.13;;;25.00;34.70;;;;;;4934152;29;20558;-77
2023/06/14 07:38:46;;;;;;;3.23;2.93;;;24.70;35.00;;;;;;4948440;29;20413;-75
2023/06/14 07:41:12;;;;;;;4.20;3.00;;;24.40;35.50;;;;;;4920152;29;20186;-79
2023/06/14 07:43:38;;;;;;;4.10;2.83;;;24.10;35.80;;;;;;4941223;29;20213;-78
2023/06/14 07:46:05;;;;;;;6.33;3.37;;;23.80;35.70;;;;;;4947236;29;20508;-78
2023/06/14 07:57:14;;;;;;;2.87;2.57;;;23.30;36.40;;;;;;5410115;23;20498;-78
2023/06/14 08:00:06;;;;;;;3.27;2.97;;;23.20;34.80;;;;;;4966486;28;20471;-79
2023/06/14 08:02:37;;;;;;;4.83;3.93;;;23.10;35.60;;;;;;4980467;28;20396;-77
2023/06/14 08:05:03;;;;;;;3.77;2.63;;;23.20;36.00;;;;;;4979629;28;20462;-76
2023/06/14 08:07:29;;;;;;;4.63;2.63;;;23.30;35.20;;;;;;4968770;28;20185;-75
2023/06/14 08:09:55;;;;;;;2.67;2.20;;;23.20;35.30;;;;;;4969919;28;20662;-74
2023/06/14 08:12:20;;;;;;;4.20;2.00;;;23.10;35.30;;;;;;4982468;28;20220;-76
2023/06/14 08:14:46;;;;;;;4.00;2.80;;;23.20;35.30;;;;;;4982075;28;20192;-73
2023/06/14 08:17:12;;;;;;;4.50;3.93;;;23.20;34.90;;;;;;4941802;29;20236;-73
2023/06/14 08:19:37;;;;;;;2.90;2.27;;;23.30;33.80;;;;;;4965675;28;20809;-73
2023/06/14 08:22:03;;;;;;;3.90;2.50;;;23.30;33.20;;;;;;4981863;28;20191;-74
2023/06/14 08:24:29;;;;;;;2.17;1.67;;;23.30;32.80;;;;;;4984935;28;20192;-75
2023/06/14 08:26:56;;;;;;;3.67;2.13;;;23.30;32.90;;;;;;4981462;28;20432;-74
2023/06/14 08:29:22;;;;;;;2.50;1.80;;;23.40;33.20;;;;;;4982483;28;20212;-76
2023/06/14 08:31:47;;;;;;;6.70;2.60;;;23.40;32.60;;;;;;4969675;28;20432;-74
2023/06/14 08:34:13;;;;;;;3.17;2.33;;;23.50;31.20;;;;;;4977737;28;20411;-76
2023/06/14 08:36:38;;;;;;;7.10;2.20;;;23.50;31.10;;;;;;4939666;28;20212;-75
2023/06/14 08:39:04;;;;;;;3.97;2.50;;;23.50;30.50;;;;;;4949489;28;20216;-73
2023/06/14 08:41:30;;;;;;;5.93;2.20;;;23.50;30.50;;;;;;4952445;28;20278;-76
2023/06/14 08:43:56;;;;;;;3.20;2.10;;;23.50;30.60;;;;;;4971890;28;20219;-78
2023/06/14 08:46:27;;;;;;;3.10;2.73;;;23.50;31.00;;;;;;4987452;28;20214;-78
2023/06/14 08:48:56;;;;;;;2.90;2.10;;;23.60;31.10;;;;;;4957049;29;20507;-78
2023/06/14 08:51:24;;;;;;;2.90;2.20;;;23.60;30.40;;;;;;4956823;28;20467;-74
2023/06/14 08:53:57;;;;;;;2.70;2.20;;;23.60;30.80;;;;;;4970244;28;20432;-74
2023/06/14 08:56:26;;;;;;;2.47;1.93;;;23.60;31.20;;;;;;4954091;28;20586;-74
2023/06/14 08:58:52;;;;;;;2.97;2.40;;;23.60;31.40;;;;;;4972893;28;20499;-79
2023/06/14 09:01:19;;;;;;;6.73;2.60;;;23.60;31.30;;;;;;4952408;28;20565;-75
2023/06/14 09:03:45;;;;;;;2.90;1.93;;;23.60;31.10;;;;;;4932941;29;20712;-78
2023/06/14 09:06:13;;;;;;;3.43;1.80;;;23.60;31.50;;;;;;4935995;29;20436;-74
2023/06/14 09:08:43;;;;;;;2.47;1.93;;;23.60;31.40;;;;;;4963606;28;20943;-74
2023/06/14 09:11:15;;;;;;;2.37;1.80;;;23.50;31.40;;;;;;4981879;28;20518;-76
2023/06/14 09:13:41;;;;;;;5.60;2.60;;;23.60;31.70;;;;;;4977567;28;20460;-75
2023/06/14 09:16:08;;;;;;;2.90;1.83;;;23.60;31.70;;;;;;4971508;28;20543;-76
2023/06/14 09:18:47;;;;;;;2.87;2.50;;;23.60;31.90;;;;;;4947129;28;20433;-75
2023/06/14 09:21:16;;;;;;;4.33;1.90;;;23.70;31.90;;;;;;4953855;28;20415;-76
2023/06/14 09:23:47;;;;;;;3.00;2.20;;;23.80;31.60;;;;;;4950993;29;20420;-77
2023/06/14 09:26:19;;;;;;;3.53;1.80;;;23.80;31.40;;;;;;4951371;28;20449;-75
2023/06/14 09:28:47;;;;;;;2.87;2.10;;;23.80;31.00;;;;;;4978771;28;20431;-75
2023/06/14 09:31:14;;;;;;;4.60;2.53;;;23.80;30.80;;;;;;4945856;29;20400;-77
2023/06/14 09:33:47;;;;;;;3.77;2.40;;;23.90;31.10;;;;;;4954685;29;20421;-80
2023/06/14 09:36:18;;;;;;;2.20;2.00;;;23.80;31.10;;;;;;4955115;29;20460;-74
2023/06/14 09:38:57;;;;;;;3.10;2.23;;;23.90;31.30;;;;;;4982764;28;20506;-76
2023/06/14 09:41:35;;;;;;;2.70;2.50;;;23.90;31.30;;;;;;4953282;29;20429;-75
2023/06/14 09:44:08;;;;;;;3.30;2.33;;;23.80;31.20;;;;;;4939025;29;20417;-79
2023/06/14 09:46:36;;;;;;;2.47;2.27;;;23.80;31.20;;;;;;4936252;29;20418;-76
2023/06/14 09:49:02;;;;;;;8.27;2.53;;;23.80;31.60;;;;;;4968821;28;20899;-75
2023/06/14 09:51:32;;;;;;;1.90;1.70;;;23.80;31.40;;;;;;4957093;29;20440;-76
2023/06/14 09:54:06;;;;;;;2.90;2.53;;;23.90;31.50;;;;;;4970579;29;20436;-76
2023/06/14 09:56:36;;;;;;;2.63;2.30;;;24.00;31.50;;;;;;4954592;28;20547;-76
2023/06/14 09:59:05;;;;;;;4.23;2.67;;;24.10;31.60;;;;;;4972356;28;20523;-76
2023/06/14 10:01:32;;;;;;;2.30;1.93;;;24.10;31.50;;;;;;4974166;28;20483;-75
2023/06/14 10:04:20;;;;;;;1.90;1.70;;;24.10;31.50;;;;;;4982129;28;20424;-81
2023/06/14 10:06:56;;;;;;;3.20;2.37;;;24.00;31.20;;;;;;4982379;28;20393;-79
2023/06/14 10:09:25;;;;;;;3.53;2.00;;;24.10;31.30;;;;;;4930203;29;20479;-77
2023/06/14 10:11:51;;;;;;;4.47;2.40;;;24.10;31.30;;;;;;4946701;28;20723;-76
2023/06/14 10:14:18;;;;;;;7.17;2.37;;;24.10;31.50;;;;;;4972792;28;20423;-78
2023/06/14 10:17:10;;;;;;;3.97;2.60;;;24.20;31.60;;;;;;4933122;29;20235;-78
2023/06/14 10:19:35;;;;;;;3.33;2.60;;;24.10;31.30;;;;;;4951785;29;20799;-75
2023/06/14 10:22:03;;;;;;;3.10;2.07;;;24.10;31.70;;;;;;4955725;29;20409;-78
2023/06/14 10:24:45;;;;;;;2.20;1.90;;;24.10;32.30;;;;;;4969316;28;20200;-77
2023/06/14 10:27:16;;;;;;;4.10;2.37;;;24.00;32.30;;;;;;4988688;28;20443;-77
2023/06/14 10:29:57;;;;;;;2.20;2.00;;;24.10;32.70;;;;;;4973467;28;20438;-75
2023/06/14 10:32:25;;;;;;;4.30;2.50;;;24.10;32.70;;;;;;4976118;28;20188;-76
2023/06/14 10:35:04;;;;;;;3.50;2.97;;;24.20;32.80;;;;;;4976701;28;20487;-77
2023/06/14 10:37:30;;;;;;;2.40;2.20;;;24.20;32.60;;;;;;4972873;28;20456;-76
2023/06/14 10:39:55;;;;;;;4.13;3.33;;;24.30;32.80;;;;;;4975988;28;20428;-78
2023/06/14 10:42:22;;;;;;;4.10;3.13;;;24.30;32.10;;;;;;4951533;29;20199;-78
2023/06/14 10:44:55;;;;;;;2.93;2.43;;;24.40;32.10;;;;;;4939609;29;20170;-77
2023/06/14 10:47:29;;;;;;;4.63;2.83;;;24.40;32.50;;;;;;4971226;28;20506;-77
2023/06/14 10:50:06;;;;;;;2.80;2.27;;;24.40;32.60;;;;;;4969343;28;20471;-77
2023/06/14 10:52:41;;;;;;;3.60;2.40;;;24.40;32.00;;;;;;4971491;29;20432;-76
2023/06/14 10:55:14;;;;;;;6.00;2.20;;;24.40;32.00;;;;;;4954398;29;20416;-76
2023/06/14 10:57:58;;;;;;;6.07;2.40;;;24.40;31.80;;;;;;4972459;28;20508;-77
2023/06/14 11:00:26;;;;;;;2.30;2.10;;;24.40;32.10;;;;;;4978111;28;20444;-79
2023/06/14 11:03:15;;;;;;;3.87;2.50;;;24.50;32.30;;;;;;4956699;29;20544;-76
2023/06/14 11:05:47;;;;;;;4.20;2.20;;;24.70;31.90;;;;;;4981256;28;20478;-75
2023/06/14 11:08:31;;;;;;;2.60;1.77;;;24.70;31.60;;;;;;4934740;29;20424;-75
2023/06/14 11:11:01;;;;;;;3.57;2.30;;;24.70;31.30;;;;;;4950428;29;20402;-74
2023/06/14 11:13:28;;;;;;;3.87;2.43;;;24.70;31.30;;;;;;4967665;29;20429;-77
2023/06/14 11:15:56;;;;;;;3.60;2.40;;;24.80;31.80;;;;;;4958497;29;20437;-78
2023/06/14 11:18:27;;;;;;;3.53;2.33;;;24.80;32.00;;;;;;4947601;29;20465;-77
2023/06/14 11:20:53;;;;;;;4.73;2.20;;;24.80;32.00;;;;;;4957471;29;20472;-78
2023/06/14 11:23:19;;;;;;;3.57;2.13;;;24.70;32.20;;;;;;4969915;29;20420;-79
2023/06/14 11:25:54;;;;;;;3.00;2.70;;;24.60;32.90;;;;;;4961526;29;20173;-78
2023/06/14 11:28:21;;;;;;;8.70;3.07;;;24.60;33.10;;;;;;4959509;29;20432;-77
2023/06/14 11:30:48;;;;;;;5.30;2.40;;;24.70;34.30;;;;;;4956508;29;20873;-77
2023/06/14 11:33:20;;;;;;;7.20;2.97;;;24.80;34.30;;;;;;4972217;29;20408;-77
2023/06/14 11:35:46;;;;;;;3.27;2.30;;;24.80;34.50;;;;;;4953705;29;20444;-76
2023/06/14 11:38:12;;;;;;;4.83;3.10;;;24.70;34.60;;;;;;4969299;28;20484;-74
2023/06/14 11:40:39;;;;;;;5.07;2.70;;;24.80;35.00;;;;;;4965902;28;20206;-72
2023/06/14 11:43:05;;;;;;;3.07;2.77;;;24.90;35.00;;;;;;4941464;29;20228;-76
2023/06/14 11:45:31;;;;;;;2.50;2.10;;;25.00;35.30;;;;;;4960553;29;20433;-78
2023/06/14 11:47:58;;;;;;;2.10;1.83;;;25.00;34.70;;;;;;4971828;29;20204;-77
2023/06/14 11:50:24;;;;;;;4.10;3.03;;;25.00;34.90;;;;;;4956006;28;20440;-76
2023/06/14 11:53:07;;;;;;;3.67;2.67;;;24.80;35.00;;;;;;4941728;29;20395;-76
2023/06/14 11:55:37;;;;;;;5.50;3.00;;;24.90;35.20;;;;;;4953323;29;20451;-77
2023/06/14 11:58:03;;;;;;;3.20;2.90;;;24.70;35.40;;;;;;4971757;28;20477;-77
2023/06/14 12:00:29;;;;;;;6.53;2.80;;;24.80;35.80;;;;;;4986981;28;20444;-77
2023/06/14 12:02:55;;;;;;;3.17;2.53;;;24.90;35.50;;;;;;4957723;29;20480;-77
2023/06/14 12:05:22;;;;;;;2.53;2.33;;;25.10;35.30;;;;;;4963812;28;20192;-76
2023/06/14 12:07:48;;;;;;;3.17;2.00;;;25.00;34.80;;;;;;4968924;29;20444;-77
2023/06/14 12:10:14;;;;;;;2.50;2.30;;;25.00;35.00;;;;;;4970529;29;20492;-77
2023/06/14 12:12:41;;;;;;;5.53;2.83;;;25.10;35.00;;;;;;4971444;29;20409;-77
2023/06/14 12:15:09;;;;;;;3.40;2.50;;;25.10;34.70;;;;;;4955268;29;20463;-76
2023/06/14 12:17:41;;;;;;;2.73;2.27;;;25.10;34.40;;;;;;4951802;29;20457;-75
2023/06/14 12:20:11;;;;;;;4.60;2.77;;;25.00;34.30;;;;;;4960902;28;20456;-77
2023/06/14 12:22:37;;;;;;;3.20;2.40;;;25.00;34.00;;;;;;4961557;28;20476;-79
2023/06/14 12:25:05;;;;;;;2.17;1.80;;;25.20;33.50;;;;;;4970586;29;20409;-78
2023/06/14 12:27:31;;;;;;;2.67;2.30;;;25.40;33.60;;;;;;4953321;29;20430;-76
2023/06/14 12:30:01;;;;;;;2.57;1.90;;;25.50;33.30;;;;;;4966092;29;20491;-75
2023/06/14 12:32:28;;;;;;;2.40;2.13;;;25.70;32.90;;;;;;4954932;29;20182;-80
2023/06/14 12:34:55;;;;;;;3.97;1.80;;;25.80;32.60;;;;;;4963682;29;20460;-78
2023/06/14 12:37:20;;;;;;;2.10;1.90;;;25.90;32.70;;;;;;4971796;29;20496;-78
2023/06/14 12:39:47;;;;;;;4.07;2.30;;;26.10;32.10;;;;;;4954573;29;20193;-77
2023/06/14 12:42:14;;;;;;;2.43;2.03;;;26.10;32.60;;;;;;4952713;29;20189;-78
2023/06/14 12:44:40;;;;;;;3.57;2.50;;;25.90;32.60;;;;;;4968899;29;20493;-78
2023/06/14 12:47:07;;;;;;;3.07;2.10;;;25.80;32.90;;;;;;4970635;29;20428;-77
2023/06/14 12:49:33;;;;;;;2.37;2.17;;;25.60;33.10;;;;;;4935718;29;20927;-79
2023/06/14 12:51:59;;;;;;;2.00;1.80;;;25.50;33.10;;;;;;4955582;29;20393;-76
2023/06/14 12:54:28;;;;;;;2.07;1.83;;;25.60;33.60;;;;;;4967832;29;20188;-78
2023/06/14 12:56:54;;;;;;;2.33;1.73;;;25.70;33.60;;;;;;4939599;28;20225;-79
2023/06/14 12:59:20;;;;;;;1.70;1.57;;;26.00;33.60;;;;;;4956137;28;20459;-77